createdAt,value
2019-04-26T00:02:45.535Z,11.27
2019-04-26T00:05:12.992Z,11.31
2019-04-26T00:07:43.744Z,11.28
2019-04-26T00:10:31.169Z,11.18
2019-04-26T00:13:08.004Z,10.96
2019-04-26T00:15:49.092Z,10.88
2019-04-26T00:18:16.746Z,10.93
2019-04-26T00:20:44.459Z,11.01
2019-04-26T00:23:12.059Z,10.92
2019-04-26T00:25:39.233Z,10.92
2019-04-26T00:28:06.409Z,10.89
2019-04-26T00:30:33.430Z,10.86
2019-04-26T00:33:00.925Z,10.84
2019-04-26T00:35:29.148Z,10.84
2019-04-26T00:37:56.355Z,10.90
2019-04-26T00:40:23.519Z,10.91
2019-04-26T00:42:51.557Z,10.86
2019-04-26T00:45:20.989Z,10.80
2019-04-26T00:47:49.827Z,10.79
2019-04-26T00:50:17.198Z,10.64
2019-04-26T00:52:45.128Z,10.60
2019-04-26T00:55:14.119Z,10.64
2019-04-26T00:57:41.545Z,10.70
2019-04-26T01:00:10.317Z,10.53
2019-04-26T01:02:42.999Z,10.38
2019-04-26T01:05:10.326Z,10.32
2019-04-26T01:07:37.874Z,10.22
2019-04-26T01:10:06.692Z,10.22
2019-04-26T01:12:34.060Z,9.93
2019-04-26T01:15:01.077Z,9.86
2019-04-26T01:17:28.201Z,9.96
2019-04-26T01:19:56.262Z,9.84
2019-04-26T01:22:27.643Z,9.80
2019-04-26T01:24:55.609Z,9.94
2019-04-26T01:27:26.396Z,9.99
2019-04-26T01:29:57.482Z,10.03
2019-04-26T01:32:26.545Z,10.09
2019-04-26T01:34:55.507Z,10.20
2019-04-26T01:37:26.687Z,10.31
2019-04-26T01:40:00.103Z,10.19
2019-04-26T01:42:50.120Z,9.97
2019-04-26T01:45:26.152Z,9.88
2019-04-26T01:47:57.033Z,9.98
2019-04-26T01:50:29.457Z,10.17
2019-04-26T01:52:58.323Z,10.22
2019-04-26T01:55:29.177Z,10.34
2019-04-26T01:57:59.165Z,10.36
2019-04-26T02:00:52.794Z,10.34
2019-04-26T02:03:24.373Z,10.39
2019-04-26T02:05:52.824Z,10.29
2019-04-26T02:08:19.886Z,10.34
2019-04-26T02:10:47.895Z,10.52
2019-04-26T02:13:16.124Z,10.59
2019-04-26T02:15:45.738Z,10.69
2019-04-26T02:18:14.994Z,10.78
2019-04-26T02:20:58.615Z,10.80
2019-04-26T02:23:34.323Z,10.75
2019-04-26T02:26:19.934Z,10.76
2019-04-26T02:28:48.623Z,10.75
2019-04-26T02:31:15.873Z,10.62
2019-04-26T02:33:43.157Z,10.66
2019-04-26T02:36:10.390Z,10.74
2019-04-26T02:38:37.741Z,10.83
2019-04-26T02:41:05.154Z,10.92
2019-04-26T02:43:35.836Z,10.92
2019-04-26T02:46:20.472Z,10.95
2019-04-26T02:49:19.274Z,10.84
2019-04-26T02:52:08.271Z,10.95
2019-04-26T02:54:44.482Z,11.07
2019-04-26T02:57:16.455Z,11.04
2019-04-26T02:59:47.149Z,11.19
2019-04-26T03:02:24.810Z,11.35
2019-04-26T03:04:56.695Z,11.32
2019-04-26T03:08:10.010Z,11.24
2019-04-26T03:10:44.174Z,11.29
2019-04-26T03:13:32.179Z,11.38
2019-04-26T03:16:25.189Z,11.37
2019-04-26T03:19:08.871Z,11.31
2019-04-26T03:21:55.343Z,11.38
2019-04-26T03:24:32.971Z,11.44
2019-04-26T03:27:43.591Z,11.58
2019-04-26T03:30:24.953Z,11.55
2019-04-26T03:33:39.861Z,11.39
2019-04-26T03:36:42.099Z,11.59
2019-04-26T03:39:30.304Z,11.81
2019-04-26T03:42:21.545Z,11.91
2019-04-26T03:45:10.272Z,11.99
2019-04-26T03:47:45.854Z,12.03
2019-04-26T03:50:18.713Z,12.03
2019-04-26T03:53:21.942Z,12.11
2019-04-26T03:56:51.190Z,12.02
2019-04-26T03:59:42.708Z,11.89
2019-04-26T04:02:31.476Z,12.00
2019-04-26T04:05:14.790Z,12.02
2019-04-26T04:07:47.864Z,12.09
2019-04-26T04:10:18.089Z,12.12
2019-04-26T04:13:09.895Z,12.22
2019-04-26T04:15:44.693Z,12.13
2019-04-26T04:18:20.420Z,12.28
2019-04-26T04:21:18.494Z,12.50
2019-04-26T04:24:04.257Z,12.76
2019-04-26T04:27:02.923Z,12.86
2019-04-26T04:30:25.663Z,12.84
2019-04-26T04:33:18.244Z,12.51
2019-04-26T04:35:52.912Z,12.46
2019-04-26T04:39:11.307Z,12.45
2019-04-26T04:41:45.062Z,12.41
2019-04-26T04:44:36.168Z,11.89
2019-04-26T04:47:32.344Z,11.66
2019-04-26T04:50:49.259Z,11.53
2019-04-26T04:53:41.441Z,11.32
2019-04-26T04:56:53.432Z,11.43
2019-04-26T04:59:28.662Z,11.38
2019-04-26T05:02:32.789Z,11.44
2019-04-26T05:05:22.220Z,11.47
2019-04-26T05:08:17.469Z,11.53
2019-04-26T05:11:01.878Z,11.54
2019-04-26T05:13:43.607Z,11.59
2019-04-26T05:16:51.207Z,11.57
2019-04-26T05:19:44.233Z,11.58
2019-04-26T05:22:37.755Z,11.46
2019-04-26T05:26:08.199Z,11.42
2019-04-26T05:29:01.578Z,11.68
2019-04-26T05:31:42.560Z,11.85
2019-04-26T05:34:53.161Z,11.70
2019-04-26T05:37:42.444Z,11.48
2019-04-26T05:40:35.981Z,11.31
2019-04-26T05:43:51.888Z,11.33
2019-04-26T05:47:06.121Z,11.24
2019-04-26T05:50:23.307Z,11.22
2019-04-26T05:53:09.899Z,11.47
2019-04-26T05:56:03.928Z,11.15
2019-04-26T05:58:51.177Z,10.83
2019-04-26T06:02:07.144Z,10.91
2019-04-26T06:05:07.298Z,10.71
2019-04-26T06:08:31.727Z,10.50
2019-04-26T06:11:07.305Z,10.59
2019-04-26T06:14:46.664Z,10.65
2019-04-26T06:18:15.210Z,10.77
2019-04-26T06:20:49.417Z,10.81
2019-04-26T06:24:09.768Z,10.86
2019-04-26T06:27:09.312Z,10.76
2019-04-26T06:29:35.278Z,10.86
2019-04-26T06:32:16.160Z,10.98
2019-04-26T06:35:22.418Z,10.90
2019-04-26T06:38:55.984Z,10.92
2019-04-26T06:42:05.684Z,10.87
2019-04-26T06:45:36.735Z,10.70
2019-04-26T06:49:01.979Z,10.71
2019-04-26T06:52:05.442Z,10.76
2019-04-26T06:55:05.411Z,10.89
2019-04-26T06:58:14.880Z,11.13
2019-04-26T07:01:03.830Z,11.26
2019-04-26T07:03:58.338Z,11.18
2019-04-26T07:06:36.788Z,11.09
2019-04-26T07:09:13.266Z,11.46
2019-04-26T07:12:21.311Z,11.64
2019-04-26T07:15:42.693Z,11.66
2019-04-26T07:18:35.559Z,11.80
2019-04-26T07:21:34.636Z,12.13
2019-04-26T07:24:56.632Z,12.14
2019-04-26T07:27:49.689Z,12.29
2019-04-26T07:30:45.637Z,12.37
2019-04-26T07:33:35.067Z,12.39
2019-04-26T07:36:21.224Z,12.41
2019-04-26T07:39:19.959Z,12.64
2019-04-26T07:42:36.124Z,12.52
2019-04-26T07:45:41.252Z,12.43
2019-04-26T07:48:33.895Z,12.55
2019-04-26T07:51:54.848Z,13.32
2019-04-26T07:54:53.179Z,13.52
2019-04-26T07:58:03.549Z,12.99
2019-04-26T08:00:45.136Z,12.65
2019-04-26T08:03:23.674Z,12.69
2019-04-26T08:06:11.564Z,12.90
2019-04-26T08:08:53.063Z,12.86
2019-04-26T08:11:29.820Z,12.77
2019-04-26T08:14:10.686Z,12.67
2019-04-26T08:16:58.573Z,12.74
2019-04-26T08:19:29.513Z,13.04
2019-04-26T08:22:11.480Z,12.91
2019-04-26T08:24:31.015Z,12.94
2019-04-26T08:27:18.899Z,12.98
2019-04-26T08:29:42.080Z,12.92
2019-04-26T08:32:23.005Z,12.50
2019-04-26T08:35:02.333Z,12.42
2019-04-26T08:37:44.369Z,12.30
2019-04-26T08:40:16.440Z,12.36
2019-04-26T08:42:53.330Z,12.66
2019-04-26T08:45:33.514Z,13.05
2019-04-26T08:48:22.356Z,12.96
2019-04-26T08:50:50.023Z,12.84
2019-04-26T08:53:17.841Z,12.90
2019-04-26T08:55:49.958Z,12.95
2019-04-26T08:58:21.006Z,12.88
2019-04-26T09:01:11.316Z,12.74
2019-04-26T09:03:45.871Z,12.94
2019-04-26T09:06:35.620Z,12.61
2019-04-26T09:09:14.319Z,12.00
2019-04-26T09:11:46.135Z,11.43
2019-04-26T09:14:13.984Z,11.29
2019-04-26T09:16:50.162Z,11.40
2019-04-26T09:19:12.247Z,11.73
2019-04-26T09:21:47.402Z,11.73
2019-04-26T09:24:32.951Z,11.86
2019-04-26T09:27:08.652Z,11.92
2019-04-26T09:29:54.579Z,11.91
2019-04-26T09:32:33.213Z,12.15
2019-04-26T09:35:00.404Z,11.92
2019-04-26T09:37:28.552Z,11.89
2019-04-26T09:39:56.013Z,11.86
2019-04-26T09:42:39.414Z,12.21
2019-04-26T09:45:24.806Z,12.22
2019-04-26T09:47:58.164Z,12.18
2019-04-26T09:50:59.739Z,12.45
2019-04-26T09:53:39.518Z,12.38
2019-04-26T09:56:07.554Z,12.13
2019-04-26T09:58:43.065Z,12.07
2019-04-26T10:01:11.876Z,12.32
2019-04-26T10:03:41.810Z,12.37
2019-04-26T10:06:09.774Z,12.26
2019-04-26T10:08:43.373Z,12.20
2019-04-26T10:11:15.054Z,12.38
2019-04-26T10:13:51.251Z,12.38
2019-04-26T10:16:28.776Z,12.39
2019-04-26T10:19:02.269Z,12.25
2019-04-26T10:21:31.566Z,12.29
2019-04-26T10:24:00.887Z,12.51
2019-04-26T10:26:29.830Z,12.39
2019-04-26T10:28:57.340Z,12.68
2019-04-26T10:31:24.431Z,12.50
2019-04-26T10:33:55.147Z,12.26
2019-04-26T10:36:26.277Z,12.14
2019-04-26T10:38:54.470Z,12.51
2019-04-26T10:41:21.599Z,12.59
2019-04-26T10:43:49.603Z,12.65
2019-04-26T10:46:16.841Z,13.29
2019-04-26T10:48:45.550Z,13.63
2019-04-26T10:51:18.929Z,13.54
2019-04-26T10:54:06.130Z,13.82
2019-04-26T10:56:42.094Z,13.54
2019-04-26T10:59:31.673Z,13.23
2019-04-26T11:01:58.718Z,13.85
2019-04-26T11:04:27.477Z,14.31
2019-04-26T11:06:54.577Z,12.89
2019-04-26T11:09:21.747Z,12.92
2019-04-26T11:11:50.503Z,12.93
2019-04-26T11:14:18.285Z,13.01
2019-04-26T11:16:52.933Z,13.10
2019-04-26T11:19:35.425Z,12.59
2019-04-26T11:22:28.354Z,12.61
2019-04-26T11:24:53.787Z,12.42
2019-04-26T11:27:36.231Z,12.47
2019-04-26T11:30:12.843Z,12.93
2019-04-26T11:33:00.040Z,13.20
2019-04-26T11:35:40.331Z,13.62
2019-04-26T11:38:35.683Z,13.67
2019-04-26T11:41:10.988Z,14.16
2019-04-26T11:43:58.387Z,14.60
2019-04-26T11:46:44.941Z,14.16
2019-04-26T11:49:23.534Z,13.86
2019-04-26T11:52:03.170Z,14.22
2019-04-26T11:54:55.156Z,15.02
2019-04-26T11:57:50.632Z,14.68
2019-04-26T12:00:33.561Z,14.80
2019-04-26T12:03:11.664Z,15.25
2019-04-26T12:06:00.476Z,15.63
2019-04-26T12:09:09.758Z,16.20
2019-04-26T12:11:49.029Z,16.20
2019-04-26T12:14:19.673Z,16.43
2019-04-26T12:16:48.060Z,15.79
2019-04-26T12:19:08.032Z,15.14
2019-04-26T12:21:37.237Z,14.04
2019-04-26T12:24:04.672Z,14.44
2019-04-26T12:26:42.535Z,14.86
2019-04-26T12:29:06.025Z,15.02
2019-04-26T12:31:35.992Z,15.02
2019-04-26T12:34:03.052Z,14.96
2019-04-26T12:36:30.195Z,14.80
2019-04-26T12:38:58.296Z,14.26
2019-04-26T12:41:39.798Z,13.90
2019-04-26T12:43:59.544Z,13.97
2019-04-26T12:46:38.208Z,13.99
2019-04-26T12:49:08.898Z,13.91
2019-04-26T12:51:38.271Z,14.13
2019-04-26T12:54:08.211Z,14.30
2019-04-26T12:56:35.810Z,14.11
2019-04-26T12:59:04.467Z,14.07
2019-04-26T13:01:31.842Z,14.01
2019-04-26T13:04:03.653Z,13.86
2019-04-26T13:06:35.351Z,13.16
2019-04-26T13:09:07.971Z,13.01
2019-04-26T13:11:59.543Z,13.16
2019-04-26T13:14:48.358Z,12.91
2019-04-26T13:17:24.618Z,13.56
2019-04-26T13:19:55.432Z,14.09
2019-04-26T13:22:23.054Z,14.26
2019-04-26T13:24:53.862Z,14.23
2019-04-26T13:27:21.015Z,14.04
2019-04-26T13:30:02.546Z,14.24
2019-04-26T13:32:26.856Z,13.62
2019-04-26T13:34:53.915Z,13.60
2019-04-26T13:37:22.219Z,13.64
2019-04-26T13:39:55.315Z,13.83
2019-04-26T13:42:22.875Z,13.64
2019-04-26T13:45:24.718Z,13.40
2019-04-26T13:48:14.653Z,13.89
2019-04-26T13:50:47.529Z,14.52
2019-04-26T13:53:14.610Z,15.15
2019-04-26T13:55:41.973Z,15.65
2019-04-26T13:58:09.212Z,16.72
2019-04-26T14:00:43.415Z,16.89
2019-04-26T14:03:09.866Z,16.35
2019-04-26T14:05:39.864Z,16.13
2019-04-26T14:08:07.145Z,16.10
2019-04-26T14:10:34.330Z,16.24
2019-04-26T14:13:02.530Z,16.18
2019-04-26T14:15:29.681Z,16.40
2019-04-26T14:18:00.218Z,16.57
2019-04-26T14:20:26.751Z,16.42
2019-04-26T14:23:11.396Z,15.41
2019-04-26T14:26:01.138Z,15.11
2019-04-26T14:28:27.707Z,14.98
2019-04-26T14:30:56.609Z,14.84
2019-04-26T14:33:27.089Z,14.87
2019-04-26T14:35:52.800Z,15.03
2019-04-26T14:38:27.702Z,15.48
2019-04-26T14:41:02.785Z,15.47
2019-04-26T14:43:23.459Z,15.50
2019-04-26T14:45:56.004Z,15.26
2019-04-26T14:48:20.949Z,15.49
2019-04-26T14:50:53.257Z,15.62
2019-04-26T14:53:20.128Z,15.53
2019-04-26T14:55:51.355Z,15.21
2019-04-26T14:58:23.836Z,15.32
2019-04-26T15:00:58.558Z,15.60
2019-04-26T15:03:30.981Z,16.07
2019-04-26T15:06:02.902Z,16.38
2019-04-26T15:08:32.146Z,15.97
2019-04-26T15:11:01.278Z,15.87
2019-04-26T15:13:28.076Z,16.10
2019-04-26T15:15:55.603Z,16.39
2019-04-26T15:18:23.660Z,16.48
2019-04-26T15:20:57.051Z,16.23
2019-04-26T15:23:23.856Z,15.65
2019-04-26T15:25:52.874Z,15.94
2019-04-26T15:28:22.030Z,16.07
2019-04-26T15:30:49.319Z,16.14
2019-04-26T15:33:16.436Z,16.30
2019-04-26T15:35:46.865Z,15.92
2019-04-26T15:38:16.251Z,15.74
2019-04-26T15:41:05.460Z,15.93
2019-04-26T15:43:46.816Z,16.18
2019-04-26T15:46:20.436Z,16.15
2019-04-26T15:49:13.120Z,16.36
2019-04-26T15:51:42.410Z,16.50
2019-04-26T15:54:09.734Z,16.87
2019-04-26T15:56:36.959Z,16.85
2019-04-26T15:59:04.386Z,16.94
2019-04-26T16:01:32.499Z,16.57
2019-04-26T16:03:59.864Z,16.32
2019-04-26T16:06:26.941Z,16.90
2019-04-26T16:08:53.984Z,16.78
2019-04-26T16:11:21.056Z,16.83
2019-04-26T16:13:54.249Z,16.97
2019-04-26T16:16:20.514Z,17.21
2019-04-26T16:18:49.852Z,17.58
2019-04-26T16:21:17.892Z,17.70
2019-04-26T16:23:50.947Z,17.69
2019-04-26T16:26:15.376Z,17.91
2019-04-26T16:28:49.639Z,17.87
2019-04-26T16:31:46.094Z,17.81
2019-04-26T16:34:15.313Z,17.61
2019-04-26T16:36:45.268Z,17.18
2019-04-26T16:39:14.554Z,16.94
2019-04-26T16:41:42.178Z,17.04
2019-04-26T16:44:10.511Z,17.18
2019-04-26T16:46:37.620Z,16.57
2019-04-26T16:49:11.589Z,16.14
2019-04-26T16:51:37.967Z,16.32
2019-04-26T16:54:10.810Z,16.17
2019-04-26T16:56:38.582Z,16.14
2019-04-26T16:59:06.812Z,16.29
2019-04-26T17:01:38.152Z,16.58
2019-04-26T17:04:04.694Z,16.97
2019-04-26T17:06:33.199Z,16.95
2019-04-26T17:09:01.583Z,16.79
2019-04-26T17:11:36.231Z,16.89
2019-04-26T17:14:04.372Z,16.86
2019-04-26T17:16:29.691Z,16.66
2019-04-26T17:18:59.528Z,16.71
2019-04-26T17:21:32.824Z,16.76
2019-04-26T17:24:22.428Z,16.38
2019-04-26T17:26:55.647Z,16.46
2019-04-26T17:29:22.879Z,16.35
2019-04-26T17:31:50.002Z,16.50
2019-04-26T17:34:22.533Z,16.38
2019-04-26T17:36:50.547Z,16.22
2019-04-26T17:39:18.288Z,16.36
2019-04-26T17:41:50.787Z,16.52
2019-04-26T17:44:21.821Z,16.27
2019-04-26T17:46:48.835Z,16.09
2019-04-26T17:49:16.228Z,15.75
2019-04-26T17:51:44.415Z,15.75
2019-04-26T17:54:26.586Z,15.52
2019-04-26T17:56:42.051Z,15.10
2019-04-26T17:59:30.274Z,14.82
2019-04-26T18:01:47.083Z,14.42
2019-04-26T18:04:11.276Z,14.32
2019-04-26T18:06:40.404Z,14.12
2019-04-26T18:09:13.245Z,13.99
2019-04-26T18:11:44.193Z,13.96
2019-04-26T18:14:21.076Z,13.93
2019-04-26T18:16:47.119Z,13.93
2019-04-26T18:19:36.560Z,13.84
2019-04-26T18:22:28.354Z,13.73
2019-04-26T18:24:55.555Z,13.65
2019-04-26T18:27:23.995Z,13.47
2019-04-26T18:29:53.155Z,13.56
2019-04-26T18:32:24.518Z,13.37
2019-04-26T18:34:53.669Z,13.28
2019-04-26T18:37:20.826Z,13.10
2019-04-26T18:39:47.854Z,12.97
2019-04-26T18:42:15.091Z,12.89
2019-04-26T18:44:47.973Z,12.94
2019-04-26T18:47:32.092Z,12.89
2019-04-26T18:49:59.367Z,12.93
2019-04-26T18:52:30.487Z,12.92
2019-04-26T18:55:03.916Z,12.97
2019-04-26T18:57:33.962Z,12.88
2019-04-26T19:00:07.064Z,12.60
2019-04-26T19:02:36.048Z,12.64
2019-04-26T19:05:13.267Z,12.60
2019-04-26T19:07:46.205Z,12.47
2019-04-26T19:10:16.056Z,12.49
2019-04-26T19:12:47.860Z,12.41
2019-04-26T19:15:26.004Z,12.39
2019-04-26T19:18:11.739Z,12.52
2019-04-26T19:20:54.269Z,12.48
2019-04-26T19:23:22.802Z,12.39
2019-04-26T19:25:55.316Z,12.13
2019-04-26T19:28:25.090Z,12.14
2019-04-26T19:30:54.875Z,11.97
2019-04-26T19:33:23.574Z,11.91
2019-04-26T19:35:53.966Z,11.86
2019-04-26T19:38:26.765Z,11.77
2019-04-26T19:41:03.560Z,11.71
2019-04-26T19:43:35.233Z,11.71
2019-04-26T19:46:21.733Z,11.55
2019-04-26T19:49:18.615Z,11.42
2019-04-26T19:52:28.523Z,11.30
2019-04-26T19:55:25.734Z,11.36
2019-04-26T19:57:59.054Z,11.31
2019-04-26T20:00:26.966Z,11.26
2019-04-26T20:02:54.164Z,11.33
2019-04-26T20:05:26.799Z,11.27
2019-04-26T20:08:05.989Z,11.35
2019-04-26T20:10:45.369Z,11.32
2019-04-26T20:13:34.137Z,11.45
2019-04-26T20:16:02.621Z,11.52
2019-04-26T20:21:34.329Z,11.86
2019-04-26T20:24:02.320Z,11.93
2019-04-26T20:26:31.484Z,11.81
2019-04-26T20:29:01.878Z,11.89
2019-04-26T20:31:47.387Z,11.96
2019-04-26T20:34:18.182Z,12.05
2019-04-26T20:36:48.467Z,12.13
2019-04-26T20:39:20.860Z,12.35
2019-04-26T20:42:00.972Z,12.52
2019-04-26T20:44:28.547Z,12.64
2019-04-26T20:46:55.997Z,12.77
2019-04-26T20:49:32.143Z,12.86
2019-04-26T20:52:09.127Z,12.89
2019-04-26T20:54:37.703Z,12.87
2019-04-26T20:57:08.799Z,12.91
2019-04-26T20:59:38.256Z,12.79
2019-04-26T21:02:08.090Z,12.58
2019-04-26T21:04:38.297Z,12.51
2019-04-26T21:07:06.765Z,12.58
2019-04-26T21:09:36.362Z,12.02
2019-04-26T21:12:17.015Z,11.13
2019-04-26T21:14:44.613Z,10.98
2019-04-26T21:17:11.542Z,11.18
2019-04-26T21:19:38.983Z,11.51
2019-04-26T21:22:07.564Z,11.69
2019-04-26T21:24:41.316Z,11.71
2019-04-26T21:27:31.774Z,11.78
2019-04-26T21:30:33.697Z,11.80
2019-04-26T21:33:28.599Z,11.94
2019-04-26T21:36:18.494Z,11.97
2019-04-26T21:38:53.479Z,12.03
2019-04-26T21:41:23.695Z,12.01
2019-04-26T21:43:54.847Z,12.10
2019-04-26T21:46:23.653Z,12.24
2019-04-26T21:48:57.425Z,12.12
2019-04-26T21:51:27.053Z,12.26
2019-04-26T21:53:57.655Z,12.17
2019-04-26T21:56:33.735Z,11.90
2019-04-26T21:59:04.418Z,11.86
2019-04-26T22:01:33.090Z,11.75
2019-04-26T22:04:05.868Z,11.58
2019-04-26T22:06:34.829Z,11.53
2019-04-26T22:09:32.442Z,11.40
2019-04-26T22:11:57.390Z,11.43
2019-04-26T22:14:29.873Z,11.49
2019-04-26T22:17:16.255Z,11.59
2019-04-26T22:19:50.346Z,11.58
2019-04-26T22:22:41.490Z,11.50
2019-04-26T22:25:13.269Z,11.52
2019-04-26T22:27:40.416Z,11.43
2019-04-26T22:30:16.206Z,11.39
2019-04-26T22:32:43.405Z,11.48
2019-04-26T22:35:19.831Z,11.47
2019-04-26T22:37:48.040Z,11.51
2019-04-26T22:40:19.547Z,11.46
2019-04-26T22:42:46.052Z,11.54
2019-04-26T22:45:19.495Z,11.60
2019-04-26T22:48:11.564Z,11.67
2019-04-26T22:50:38.122Z,11.62
2019-04-26T22:53:05.640Z,11.58
2019-04-26T22:55:33.441Z,11.55
2019-04-26T22:58:06.287Z,11.39
2019-04-26T23:00:37.980Z,11.39
2019-04-26T23:03:07.262Z,11.47
2019-04-26T23:05:39.107Z,11.44
2019-04-26T23:08:13.573Z,11.46
2019-04-26T23:10:48.047Z,11.67
2019-04-26T23:13:47.057Z,11.83
2019-04-26T23:16:34.455Z,11.86
2019-04-26T23:19:15.343Z,11.79
2019-04-26T23:21:52.981Z,11.90
2019-04-26T23:24:18.948Z,11.81
2019-04-26T23:26:45.720Z,11.75
2019-04-26T23:29:18.056Z,11.70
2019-04-26T23:31:44.681Z,11.75
2019-04-26T23:34:14.259Z,11.82
2019-04-26T23:36:43.542Z,11.93
2019-04-26T23:39:16.603Z,11.86
2019-04-26T23:41:44.604Z,11.78
2019-04-26T23:44:13.277Z,11.65
2019-04-26T23:46:40.583Z,11.71
2019-04-26T23:49:07.692Z,11.76
2019-04-26T23:51:38.187Z,11.98
2019-04-26T23:54:05.178Z,11.91
2019-04-26T23:56:34.831Z,11.73
2019-04-26T23:59:04.755Z,11.70
